Time;durP1;ratioP1;P1;durP2;ratioP2;P2;SDS_P1;SDS_P2;PMS_P1;PMS_P2;Temp;Humidity;BMP_temperature;BMP_pressure;BME280_temperature;BME280_humidity;BME280_pressure;Samples;Min_cycle;Max_cycle;Signal;HPM_P1;HPM_P2
2022/01/10 00:00:46;;;;;;;9.82;4.07;;;4.00;72.80;;;;;;5050816;28;20037;-71
2022/01/10 00:03:12;;;;;;;10.52;4.85;;;4.00;72.90;;;;;;5040095;28;20489;-72
2022/01/10 00:05:38;;;;;;;6.90;4.32;;;3.90;72.80;;;;;;5042299;28;20028;-72
2022/01/10 00:08:04;;;;;;;7.65;4.80;;;3.90;72.80;;;;;;5036508;28;20473;-72
2022/01/10 00:10:31;;;;;;;7.35;4.90;;;3.90;72.90;;;;;;5053241;28;20041;-72
2022/01/10 00:12:58;;;;;;;7.38;4.55;;;3.90;72.90;;;;;;5049168;28;20029;-72
2022/01/10 00:15:24;;;;;;;7.30;4.80;;;3.90;73.00;;;;;;5045807;28;20021;-71
2022/01/10 00:17:50;;;;;;;6.70;4.78;;;3.90;72.90;;;;;;5047560;28;20032;-72
2022/01/10 00:20:18;;;;;;;9.50;5.15;;;3.90;73.00;;;;;;5049315;28;20558;-72
2022/01/10 00:22:47;;;;;;;12.65;4.18;;;3.90;73.00;;;;;;5048194;28;20025;-72
2022/01/10 00:25:14;;;;;;;8.65;4.00;;;3.90;73.00;;;;;;5053249;28;20025;-72
2022/01/10 00:27:41;;;;;;;9.70;4.30;;;3.90;73.00;;;;;;5066395;28;20489;-72
2022/01/10 00:30:07;;;;;;;8.07;3.97;;;3.90;73.20;;;;;;5038021;28;20058;-72
2022/01/10 00:32:33;;;;;;;5.47;3.80;;;3.90;73.20;;;;;;5032922;28;20036;-72
2022/01/10 00:34:58;;;;;;;6.88;3.75;;;3.90;73.20;;;;;;5032512;28;20025;-72
2022/01/10 00:37:24;;;;;;;6.72;3.92;;;3.90;73.20;;;;;;5035101;28;20038;-72
2022/01/10 00:39:50;;;;;;;8.32;3.70;;;3.90;73.10;;;;;;5032625;28;20112;-72
2022/01/10 00:42:16;;;;;;;8.18;3.67;;;3.90;73.10;;;;;;5036570;28;20041;-71
2022/01/10 00:44:50;;;;;;;6.55;3.85;;;3.90;73.10;;;;;;5041089;28;20032;-71
2022/01/10 00:47:16;;;;;;;4.30;2.75;;;3.90;73.00;;;;;;5050519;28;20029;-71
2022/01/10 00:49:42;;;;;;;7.00;4.18;;;3.90;72.90;;;;;;5042091;28;20056;-72
2022/01/10 00:52:08;;;;;;;7.90;3.85;;;3.90;72.90;;;;;;5046878;28;20029;-72
2022/01/10 00:54:33;;;;;;;9.88;3.72;;;3.90;73.00;;;;;;5051304;28;20355;-72
2022/01/10 00:56:59;;;;;;;7.10;4.00;;;3.90;73.10;;;;;;5041245;28;20029;-72
2022/01/10 00:59:24;;;;;;;9.50;4.38;;;4.00;73.20;;;;;;5038889;28;20028;-72
2022/01/10 01:01:50;;;;;;;6.18;3.95;;;3.90;73.20;;;;;;5049313;28;20033;-72
2022/01/10 01:04:16;;;;;;;9.40;3.97;;;3.90;73.20;;;;;;5051671;28;20025;-72
2022/01/10 01:06:43;;;;;;;8.07;3.50;;;3.90;73.20;;;;;;5048362;28;20047;-72
2022/01/10 01:09:12;;;;;;;6.35;3.60;;;3.90;73.20;;;;;;5046905;28;20445;-72
2022/01/10 01:14:10;;;;;;;8.80;3.97;;;3.90;73.20;;;;;;5043156;28;20434;-72
2022/01/10 01:19:50;;;;;;;6.65;4.05;;;3.90;73.20;;;;;;5051509;28;20044;-72
2022/01/10 01:24:33;;;;;;;;;;;3.90;73.20;;;;;;5051585;28;20493;-72
2022/01/10 01:26:59;;;;;;;4.45;3.42;;;4.00;73.50;;;;;;5050644;28;19940;-72
2022/01/10 01:29:28;;;;;;;4.93;3.42;;;4.00;73.00;;;;;;5041538;28;21215;-72
2022/01/10 01:31:54;;;;;;;5.55;3.72;;;3.90;73.00;;;;;;5044531;28;20477;-72
2022/01/10 01:34:22;;;;;;;5.88;3.70;;;3.90;73.10;;;;;;5046261;28;20029;-72
2022/01/10 01:36:54;;;;;;;6.57;3.60;;;4.10;73.30;;;;;;5032614;28;20060;-72
2022/01/10 01:39:23;;;;;;;7.10;3.67;;;3.90;73.20;;;;;;5043522;28;20025;-72
2022/01/10 01:41:50;;;;;;;4.53;3.40;;;4.00;73.30;;;;;;5040626;28;20431;-72
2022/01/10 01:44:16;;;;;;;7.80;3.70;;;3.90;73.30;;;;;;5035971;28;20029;-72
2022/01/10 01:46:43;;;;;;;6.60;3.70;;;3.90;73.20;;;;;;5049540;28;20537;-72
2022/01/10 01:49:10;;;;;;;6.43;3.85;;;3.90;73.20;;;;;;5042731;28;20039;-72
2022/01/10 01:51:36;;;;;;;6.18;3.60;;;3.90;73.30;;;;;;5049365;28;20045;-72
2022/01/10 01:54:03;;;;;;;6.00;3.78;;;4.10;73.40;;;;;;5071363;28;20021;-71
2022/01/10 01:56:29;;;;;;;7.55;3.53;;;4.00;73.30;;;;;;5046213;28;20064;-72
2022/01/10 01:58:55;;;;;;;8.93;3.92;;;4.00;73.30;;;;;;5036071;28;20463;-72
2022/01/10 02:01:23;;;;;;;5.93;3.60;;;4.10;73.40;;;;;;5047084;28;20082;-72
2022/01/10 02:03:49;;;;;;;4.85;3.10;;;4.00;73.40;;;;;;5044196;28;20466;-72
2022/01/10 02:06:15;;;;;;;5.78;3.28;;;4.00;73.40;;;;;;5049722;28;20040;-72
2022/01/10 02:08:41;;;;;;;7.53;3.30;;;4.30;73.50;;;;;;5044753;28;20104;-72
2022/01/10 02:11:09;;;;;;;6.82;3.92;;;4.00;73.30;;;;;;5041836;28;20045;-72
2022/01/10 02:13:36;;;;;;;6.07;3.05;;;4.00;73.40;;;;;;5038166;28;20021;-72
2022/01/10 02:16:05;;;;;;;6.68;3.42;;;4.00;73.40;;;;;;5032857;28;20029;-72
2022/01/10 02:18:32;;;;;;;4.68;3.17;;;4.00;73.40;;;;;;5047451;28;20028;-72
2022/01/10 02:21:04;;;;;;;4.45;3.33;;;4.00;73.60;;;;;;5033210;28;20022;-72
2022/01/10 02:23:31;;;;;;;10.57;3.53;;;4.20;73.70;;;;;;5039727;28;20040;-72
2022/01/10 02:25:57;;;;;;;5.28;3.47;;;4.00;73.60;;;;;;5036404;28;20024;-72
2022/01/10 02:28:23;;;;;;;4.88;3.83;;;4.00;73.60;;;;;;5043335;28;20500;-71
2022/01/10 02:30:56;;;;;;;7.45;4.75;;;4.00;73.60;;;;;;5043648;28;20048;-71
2022/01/10 02:33:27;;;;;;;9.77;4.78;;;4.20;73.70;;;;;;5033737;28;20029;-71
2022/01/10 02:36:16;;;;;;;10.35;5.18;;;4.00;73.60;;;;;;5038344;28;20029;-71
2022/01/10 02:38:57;;;;;;;9.27;5.30;;;4.10;73.70;;;;;;5032365;28;20030;-71
2022/01/10 02:41:28;;;;;;;8.02;4.93;;;4.10;73.80;;;;;;5042070;28;20064;-71
2022/01/10 02:43:55;;;;;;;7.15;5.07;;;4.30;73.80;;;;;;5053173;28;20021;-71
2022/01/10 02:46:22;;;;;;;7.80;4.10;;;4.10;73.50;;;;;;5047116;28;20039;-71
2022/01/10 02:48:48;;;;;;;8.18;4.55;;;4.40;73.60;;;;;;5047144;28;20033;-71
2022/01/10 02:51:14;;;;;;;7.30;4.55;;;4.10;73.30;;;;;;5036406;28;20080;-71
2022/01/10 02:53:40;;;;;;;7.65;4.20;;;4.10;73.30;;;;;;5042638;28;20057;-71
2022/01/10 02:56:06;;;;;;;9.05;4.18;;;4.10;73.30;;;;;;5043673;28;20034;-71
2022/01/10 02:58:32;;;;;;;7.05;4.28;;;4.10;73.30;;;;;;5045228;28;20021;-71
2022/01/10 03:00:58;;;;;;;7.80;4.45;;;4.00;73.20;;;;;;5044691;28;20096;-71
2022/01/10 03:03:30;;;;;;;6.85;3.83;;;4.00;73.30;;;;;;5052409;28;20115;-71
2022/01/10 03:05:56;;;;;;;7.03;4.25;;;4.00;73.40;;;;;;5033645;28;20541;-71
2022/01/10 03:08:23;;;;;;;7.05;4.30;;;4.00;73.40;;;;;;5045201;28;20581;-71
2022/01/10 03:10:49;;;;;;;6.00;3.95;;;4.00;73.50;;;;;;5043697;28;20489;-71
2022/01/10 03:13:15;;;;;;;8.00;4.47;;;4.00;73.60;;;;;;5052159;28;20039;-71
2022/01/10 03:15:40;;;;;;;6.07;3.75;;;4.00;73.70;;;;;;5070543;28;20485;-71
2022/01/10 03:18:06;;;;;;;7.47;4.60;;;4.00;73.70;;;;;;5053171;28;20028;-71
2022/01/10 03:20:32;;;;;;;6.68;4.78;;;4.20;73.90;;;;;;5054515;28;20028;-71
2022/01/10 03:22:57;;;;;;;7.80;5.00;;;4.30;74.00;;;;;;5053013;28;20039;-71
2022/01/10 03:25:23;;;;;;;9.60;4.20;;;4.10;73.90;;;;;;5055109;28;20029;-71
2022/01/10 03:27:49;;;;;;;9.05;4.28;;;4.10;73.90;;;;;;5056545;28;20021;-74
2022/01/10 03:30:15;;;;;;;12.20;5.07;;;4.10;73.90;;;;;;5043027;28;20518;-71
2022/01/10 03:32:42;;;;;;;12.95;5.03;;;4.10;73.90;;;;;;5045595;28;20017;-71
2022/01/10 03:35:08;;;;;;;6.80;3.92;;;4.20;74.00;;;;;;5059538;28;20032;-71
2022/01/10 03:37:34;;;;;;;8.98;4.60;;;4.20;74.00;;;;;;5051029;28;20025;-71
2022/01/10 03:40:00;;;;;;;7.47;4.30;;;4.20;74.10;;;;;;5054761;28;20021;-71
2022/01/10 03:42:25;;;;;;;6.43;3.97;;;4.20;74.10;;;;;;5053541;28;20033;-71
2022/01/10 03:44:51;;;;;;;7.60;4.30;;;4.20;74.00;;;;;;5054788;28;20086;-71
2022/01/10 03:47:18;;;;;;;6.93;4.18;;;4.40;74.20;;;;;;5054545;28;20035;-71
2022/01/10 03:49:44;;;;;;;7.00;4.57;;;4.30;74.10;;;;;;5054550;28;20078;-71
2022/01/10 03:52:10;;;;;;;6.85;4.00;;;4.30;74.10;;;;;;5053175;28;20029;-71
2022/01/10 03:54:36;;;;;;;9.95;4.82;;;4.40;74.20;;;;;;5054439;28;20059;-71
2022/01/10 03:57:01;;;;;;;11.60;4.45;;;4.30;74.10;;;;;;5052785;28;20123;-72
2022/01/10 03:59:27;;;;;;;8.35;4.35;;;4.40;74.10;;;;;;5054472;28;20025;-71
2022/01/10 04:01:53;;;;;;;6.15;3.95;;;4.40;74.00;;;;;;5054282;28;20025;-71
2022/01/10 04:04:19;;;;;;;7.57;4.68;;;4.40;74.00;;;;;;5044488;28;20017;-71
2022/01/10 04:06:45;;;;;;;6.65;4.03;;;4.40;73.80;;;;;;5034443;28;20469;-71
2022/01/10 04:09:11;;;;;;;5.63;4.10;;;4.40;73.80;;;;;;5034458;28;20018;-72
2022/01/10 04:11:37;;;;;;;6.95;4.40;;;4.40;73.80;;;;;;5033088;28;20037;-71
2022/01/10 04:14:03;;;;;;;10.55;4.78;;;4.40;73.70;;;;;;5032976;28;20022;-71
2022/01/10 04:16:28;;;;;;;7.00;4.28;;;4.40;73.70;;;;;;5034352;28;20025;-72
2022/01/10 04:18:54;;;;;;;10.68;5.28;;;4.40;73.70;;;;;;5034153;28;20378;-71
2022/01/10 04:21:20;;;;;;;8.10;4.75;;;4.40;73.70;;;;;;5034059;28;20469;-71
2022/01/10 04:23:46;;;;;;;9.70;4.93;;;4.40;73.70;;;;;;5034299;28;20425;-71
2022/01/10 04:26:12;;;;;;;7.75;4.97;;;4.40;73.70;;;;;;5032837;28;20025;-71
2022/01/10 04:28:38;;;;;;;12.32;4.50;;;4.40;73.80;;;;;;5033832;28;20414;-71
2022/01/10 04:31:04;;;;;;;9.60;4.30;;;4.50;73.80;;;;;;5032667;28;20113;-71
2022/01/10 04:33:30;;;;;;;10.35;4.72;;;4.30;73.70;;;;;;5033980;28;20032;-71
2022/01/10 04:35:57;;;;;;;8.73;4.28;;;4.40;73.80;;;;;;5032746;28;20025;-72
2022/01/10 04:38:23;;;;;;;10.27;5.28;;;4.40;73.80;;;;;;5032533;28;20355;-71
2022/01/10 04:40:49;;;;;;;8.10;4.45;;;4.60;74.00;;;;;;5032458;28;20121;-71
2022/01/10 04:43:15;;;;;;;11.88;4.43;;;4.50;73.90;;;;;;5033856;28;20101;-71
2022/01/10 04:45:42;;;;;;;11.30;6.10;;;4.40;73.80;;;;;;5033563;28;20029;-71
2022/01/10 04:48:08;;;;;;;9.32;5.43;;;4.50;73.80;;;;;;5033706;28;20033;-71
2022/01/10 04:53:18;;;;;;;6.15;3.88;;;4.40;73.80;;;;;;5033801;28;20075;-71
2022/01/10 04:55:43;;;;;;;7.18;4.25;;;4.40;73.80;;;;;;5043770;28;20037;-71
2022/01/10 04:58:09;;;;;;;5.72;4.07;;;4.40;73.80;;;;;;5034529;28;20032;-72
2022/01/10 05:00:35;;;;;;;7.38;3.85;;;4.40;73.80;;;;;;5033643;28;20030;-71
2022/01/10 05:03:00;;;;;;;12.35;4.93;;;4.40;73.80;;;;;;5032139;28;20108;-71
2022/01/10 05:05:26;;;;;;;7.82;4.85;;;4.40;73.90;;;;;;5052594;28;20531;-71
2022/01/10 05:07:52;;;;;;;8.98;4.43;;;4.40;73.90;;;;;;5052370;28;20457;-71
2022/01/10 05:10:17;;;;;;;11.38;5.10;;;4.40;74.00;;;;;;5053187;28;20473;-71
2022/01/10 05:12:43;;;;;;;10.00;5.03;;;4.40;74.00;;;;;;5053129;28;20103;-71
2022/01/10 05:15:09;;;;;;;7.80;4.47;;;4.40;74.00;;;;;;5053007;28;20112;-72
2022/01/10 05:17:35;;;;;;;8.05;4.00;;;4.40;74.10;;;;;;5053049;28;20470;-71
2022/01/10 05:20:02;;;;;;;7.20;3.75;;;4.50;74.20;;;;;;5051724;28;20064;-71
2022/01/10 05:22:28;;;;;;;9.15;3.45;;;4.60;74.20;;;;;;5051581;28;20488;-71
2022/01/10 05:24:56;;;;;;;5.43;3.50;;;4.40;74.10;;;;;;5053052;28;20116;-72
2022/01/10 05:27:22;;;;;;;9.10;3.95;;;4.40;74.10;;;;;;5047856;28;20029;-71
2022/01/10 05:29:47;;;;;;;7.50;3.70;;;4.40;74.10;;;;;;5032713;28;20056;-71
2022/01/10 05:32:13;;;;;;;10.70;3.83;;;4.40;74.10;;;;;;5033079;28;20029;-71
2022/01/10 05:34:39;;;;;;;6.40;3.13;;;4.40;74.00;;;;;;5031457;28;20026;-71
2022/01/10 05:37:04;;;;;;;5.80;3.60;;;4.40;74.10;;;;;;5033017;28;20026;-71
2022/01/10 05:39:30;;;;;;;9.18;3.40;;;4.70;74.40;;;;;;5032724;28;20030;-71
2022/01/10 05:41:56;;;;;;;5.85;3.35;;;4.40;74.30;;;;;;5032802;28;20501;-71
2022/01/10 05:44:22;;;;;;;7.03;3.25;;;4.40;74.30;;;;;;5033008;28;20026;-71
2022/01/10 05:46:48;;;;;;;6.93;3.60;;;4.30;74.40;;;;;;5032792;28;20029;-71
2022/01/10 05:49:15;;;;;;;7.43;3.15;;;4.30;74.30;;;;;;5032831;28;20156;-72
2022/01/10 05:51:41;;;;;;;9.57;3.95;;;4.30;74.40;;;;;;5032671;28;20042;-71
2022/01/10 05:54:07;;;;;;;8.73;3.33;;;4.30;74.50;;;;;;5032685;28;20048;-71
2022/01/10 05:56:34;;;;;;;8.25;3.50;;;4.30;74.50;;;;;;5032719;28;20061;-71
2022/01/10 05:59:03;;;;;;;9.23;3.72;;;4.30;74.50;;;;;;5032810;28;20025;-71
2022/01/10 06:01:29;;;;;;;10.30;3.55;;;4.50;74.70;;;;;;5032585;28;20229;-71
2022/01/10 06:03:55;;;;;;;8.65;4.55;;;4.30;74.30;;;;;;5038028;28;20025;-71
2022/01/10 06:06:20;;;;;;;23.48;15.60;;;4.30;74.40;;;;;;5051146;28;20035;-71
2022/01/10 06:08:46;;;;;;;20.73;13.18;;;4.30;74.40;;;;;;5052482;28;20071;-71
2022/01/10 06:11:12;;;;;;;16.38;10.57;;;4.40;74.50;;;;;;5052459;28;20485;-71
2022/01/10 06:13:38;;;;;;;10.68;5.82;;;4.40;74.50;;;;;;5052393;28;20025;-71
2022/01/10 06:16:04;;;;;;;5.88;3.88;;;4.40;74.50;;;;;;5052346;28;20109;-71
2022/01/10 06:18:30;;;;;;;9.52;4.13;;;4.40;74.50;;;;;;5052878;28;20048;-71
2022/01/10 06:20:55;;;;;;;9.15;3.63;;;4.40;74.50;;;;;;5055086;28;20063;-71
2022/01/10 06:23:22;;;;;;;6.82;3.85;;;4.40;74.40;;;;;;5056380;28;20027;-71
2022/01/10 06:25:48;;;;;;;8.98;3.72;;;4.40;74.50;;;;;;5056198;28;20484;-71
2022/01/10 06:28:15;;;;;;;6.22;3.58;;;4.40;74.40;;;;;;5042317;28;20037;-71
2022/01/10 06:30:41;;;;;;;7.10;3.00;;;4.40;74.40;;;;;;5036329;28;20045;-71
2022/01/10 06:33:07;;;;;;;23.50;13.20;;;4.40;74.30;;;;;;5036043;28;20029;-71
2022/01/10 06:35:33;;;;;;;13.52;6.07;;;4.40;74.40;;;;;;5036146;28;20030;-71
2022/01/10 06:37:59;;;;;;;12.43;4.70;;;4.40;74.40;;;;;;5034797;28;20068;-71
2022/01/10 06:40:24;;;;;;;12.68;5.03;;;4.40;74.50;;;;;;5036083;28;20490;-71
2022/01/10 06:42:50;;;;;;;14.15;6.75;;;4.40;74.40;;;;;;5036276;28;20048;-71
2022/01/10 06:45:16;;;;;;;16.83;7.03;;;4.40;74.30;;;;;;5035917;28;20022;-71
2022/01/10 06:47:42;;;;;;;16.77;6.03;;;4.40;74.20;;;;;;5034599;28;20032;-71
2022/01/10 06:50:08;;;;;;;13.23;5.60;;;4.40;74.30;;;;;;5035941;28;20419;-71
2022/01/10 06:52:34;;;;;;;13.98;5.20;;;4.40;74.40;;;;;;5035755;28;20022;-71
2022/01/10 06:55:00;;;;;;;9.95;4.20;;;4.40;74.40;;;;;;5034563;28;20021;-71
2022/01/10 06:57:26;;;;;;;6.28;3.40;;;4.40;74.40;;;;;;5038534;28;20385;-71
2022/01/10 06:59:53;;;;;;;7.93;3.30;;;4.40;74.10;;;;;;5043080;28;20105;-71
2022/01/10 07:02:19;;;;;;;5.80;3.13;;;4.50;74.20;;;;;;5035896;28;20060;-71
2022/01/10 07:04:45;;;;;;;7.93;3.97;;;4.40;74.40;;;;;;5048936;28;20079;-71
2022/01/10 07:07:10;;;;;;;10.30;4.25;;;4.40;74.40;;;;;;5055540;28;20021;-72
2022/01/10 07:09:37;;;;;;;13.77;5.15;;;4.40;74.40;;;;;;5055560;28;20028;-72
2022/01/10 07:12:03;;;;;;;18.33;5.82;;;4.40;74.50;;;;;;5055307;28;20083;-71
2022/01/10 07:14:31;;;;;;;12.48;6.35;;;4.40;74.50;;;;;;5055378;28;20468;-71
2022/01/10 07:16:57;;;;;;;14.27;6.25;;;4.40;74.50;;;;;;5055354;28;20025;-71
2022/01/10 07:19:23;;;;;;;21.25;9.13;;;4.30;74.30;;;;;;5054022;28;20028;-71
2022/01/10 07:21:49;;;;;;;14.30;6.88;;;4.40;74.40;;;;;;5055085;28;20488;-71
2022/01/10 07:24:15;;;;;;;36.10;12.25;;;4.40;74.40;;;;;;5055526;28;20049;-71
2022/01/10 07:26:41;;;;;;;29.00;11.57;;;4.40;74.50;;;;;;5053869;28;20119;-71
2022/01/10 07:29:08;;;;;;;14.43;7.18;;;4.50;74.50;;;;;;5035277;28;20043;-71
2022/01/10 07:31:34;;;;;;;9.65;5.00;;;4.40;74.40;;;;;;5032791;28;20123;-71
2022/01/10 07:34:00;;;;;;;11.15;4.85;;;4.40;74.50;;;;;;5033783;28;20022;-71
2022/01/10 07:36:26;;;;;;;7.75;4.50;;;4.40;74.40;;;;;;5033816;28;20600;-71
2022/01/10 07:38:51;;;;;;;7.78;4.70;;;4.40;74.40;;;;;;5033723;28;20473;-71
2022/01/10 07:41:17;;;;;;;11.90;4.75;;;4.60;74.60;;;;;;5034985;28;20398;-71
2022/01/10 07:43:43;;;;;;;10.93;4.80;;;4.40;74.30;;;;;;5033731;28;20466;-72
2022/01/10 07:46:11;;;;;;;12.15;5.45;;;4.40;74.40;;;;;;5034866;28;20404;-71
2022/01/10 07:48:39;;;;;;;18.02;6.28;;;4.40;74.20;;;;;;5034934;28;20069;-71
2022/01/10 07:51:08;;;;;;;16.15;6.75;;;4.40;74.40;;;;;;5033452;28;20043;-71
2022/01/10 07:53:35;;;;;;;19.67;7.38;;;4.40;74.30;;;;;;5034655;28;20026;-71
2022/01/10 07:56:01;;;;;;;17.85;6.93;;;4.40;74.40;;;;;;5034843;28;20493;-71
2022/01/10 07:58:27;;;;;;;17.45;7.93;;;4.40;74.60;;;;;;5033372;28;20025;-71
2022/01/10 08:00:52;;;;;;;25.42;11.55;;;4.40;74.80;;;;;;5034521;28;20048;-71
2022/01/10 08:03:18;;;;;;;30.42;12.98;;;4.60;75.00;;;;;;5034801;28;20091;-71
2022/01/10 08:05:43;;;;;;;31.65;12.60;;;4.50;75.00;;;;;;5053139;28;20408;-71
2022/01/10 08:08:09;;;;;;;24.42;12.40;;;4.50;75.10;;;;;;5054370;28;20423;-71
2022/01/10 08:10:35;;;;;;;22.05;10.70;;;4.50;75.10;;;;;;5053070;28;20548;-71
2022/01/10 08:13:00;;;;;;;23.33;11.20;;;4.50;75.10;;;;;;5054295;28;20480;-71
2022/01/10 08:15:26;;;;;;;27.63;10.95;;;4.60;75.00;;;;;;5054450;28;20060;-71
2022/01/10 08:17:52;;;;;;;26.48;11.73;;;4.60;75.00;;;;;;5054119;28;20358;-71
2022/01/10 08:20:17;;;;;;;23.20;12.05;;;4.70;75.10;;;;;;5054160;28;20039;-72
2022/01/10 08:22:43;;;;;;;27.08;12.43;;;4.80;75.20;;;;;;5054338;28;20032;-71
2022/01/10 08:25:09;;;;;;;25.85;12.15;;;4.70;75.10;;;;;;5052748;28;20091;-71
2022/01/10 08:27:35;;;;;;;24.38;12.07;;;4.80;75.00;;;;;;5053767;28;20024;-71
2022/01/10 08:30:03;;;;;;;27.80;13.57;;;4.90;75.10;;;;;;5053775;28;20493;-71
2022/01/10 08:32:28;;;;;;;35.25;15.70;;;4.90;75.10;;;;;;5052486;28;20028;-71
2022/01/10 08:34:55;;;;;;;47.63;20.17;;;4.90;75.00;;;;;;5052635;28;20031;-71
2022/01/10 08:37:21;;;;;;;35.83;16.17;;;5.00;75.00;;;;;;5052776;28;20059;-71
2022/01/10 08:39:49;;;;;;;33.30;15.60;;;5.10;74.90;;;;;;5035889;28;20029;-71
2022/01/10 08:42:16;;;;;;;29.45;13.00;;;5.10;74.90;;;;;;5053772;28;20545;-71
2022/01/10 08:44:42;;;;;;;25.80;10.32;;;5.20;74.80;;;;;;5053679;28;20081;-71
2022/01/10 08:47:08;;;;;;;16.15;8.60;;;5.20;74.70;;;;;;5053468;28;20021;-71
2022/01/10 08:49:34;;;;;;;17.23;8.32;;;5.30;74.70;;;;;;5052425;28;20358;-71
2022/01/10 08:52:00;;;;;;;21.25;10.60;;;5.30;74.60;;;;;;5053573;28;20059;-71
2022/01/10 08:54:26;;;;;;;31.92;12.80;;;5.40;74.50;;;;;;5053525;28;20385;-71
2022/01/10 08:56:52;;;;;;;26.67;10.85;;;5.40;75.20;;;;;;5053846;28;20385;-71
2022/01/10 08:59:18;;;;;;;21.60;9.95;;;5.50;74.50;;;;;;5049137;28;20095;-71
2022/01/10 09:01:46;;;;;;;15.70;8.52;;;5.50;74.40;;;;;;5050431;28;20159;-71
2022/01/10 09:04:16;;;;;;;15.65;8.57;;;5.60;74.20;;;;;;5042886;28;20049;-71
2022/01/10 09:06:44;;;;;;;17.38;8.20;;;5.60;74.10;;;;;;5032089;28;20031;-71
2022/01/10 09:09:10;;;;;;;15.77;7.05;;;5.60;74.70;;;;;;5032214;28;20036;-71
2022/01/10 09:11:35;;;;;;;18.15;7.72;;;5.70;73.90;;;;;;5033164;28;20037;-71
2022/01/10 09:14:01;;;;;;;25.98;10.55;;;5.80;73.80;;;;;;5032019;28;20536;-71
2022/01/10 09:16:27;;;;;;;18.42;8.32;;;5.70;73.80;;;;;;5033206;28;20033;-71
2022/01/10 09:18:52;;;;;;;15.98;8.48;;;5.70;73.90;;;;;;5031848;28;20033;-71
2022/01/10 09:21:18;;;;;;;23.73;8.60;;;5.80;73.90;;;;;;5031869;28;20041;-71
2022/01/10 09:23:44;;;;;;;18.67;7.53;;;5.80;74.00;;;;;;5033233;28;20022;-71
2022/01/10 09:26:09;;;;;;;19.08;7.60;;;5.90;74.00;;;;;;5033110;28;20021;-71
2022/01/10 09:28:35;;;;;;;18.05;7.13;;;5.90;73.80;;;;;;5047954;28;20052;-71
2022/01/10 09:31:01;;;;;;;21.88;7.75;;;6.00;73.70;;;;;;5052755;28;20041;-71
2022/01/10 09:33:27;;;;;;;13.18;6.72;;;6.00;73.50;;;;;;5052768;28;20025;-71
2022/01/10 09:35:52;;;;;;;13.23;7.15;;;6.10;73.50;;;;;;5052872;28;20480;-72
2022/01/10 09:38:18;;;;;;;19.52;7.18;;;6.20;73.40;;;;;;5052753;28;20032;-72
2022/01/10 09:40:44;;;;;;;16.83;7.07;;;6.20;73.40;;;;;;5052782;28;20026;-72
2022/01/10 09:43:10;;;;;;;13.02;6.63;;;6.20;73.30;;;;;;5052867;28;20032;-72
2022/01/10 09:45:38;;;;;;;14.70;6.95;;;6.30;73.20;;;;;;5052662;28;20033;-72
2022/01/10 09:48:06;;;;;;;16.42;6.28;;;6.40;73.00;;;;;;5052684;28;20036;-72
2022/01/10 09:50:31;;;;;;;13.25;6.22;;;6.40;72.60;;;;;;5052474;28;20029;-72
2022/01/10 09:52:57;;;;;;;13.95;6.70;;;6.40;72.30;;;;;;5052473;28;20099;-72
2022/01/10 09:55:24;;;;;;;11.75;6.78;;;6.40;72.20;;;;;;5052371;28;20465;-72
2022/01/10 09:57:50;;;;;;;8.95;5.20;;;6.50;73.10;;;;;;5052417;28;20025;-72
2022/01/10 10:00:17;;;;;;;9.15;5.82;;;6.50;72.50;;;;;;5051300;28;20082;-72
2022/01/10 10:02:43;;;;;;;13.73;5.72;;;6.50;72.20;;;;;;5034867;28;20021;-72
2022/01/10 10:05:12;;;;;;;11.07;5.60;;;6.50;72.20;;;;;;5052520;28;20462;-72
2022/01/10 10:07:40;;;;;;;11.38;5.80;;;6.50;71.90;;;;;;5052467;28;20032;-72
2022/01/10 10:10:11;;;;;;;8.10;4.78;;;6.50;71.90;;;;;;5052532;28;20098;-72
2022/01/10 10:12:39;;;;;;;14.27;5.10;;;6.50;71.90;;;;;;5052369;28;20060;-72
2022/01/10 10:15:07;;;;;;;9.85;5.10;;;6.50;71.90;;;;;;5052415;28;20378;-72
2022/01/10 10:17:34;;;;;;;17.27;6.45;;;6.50;71.80;;;;;;5052639;28;20052;-72
2022/01/10 10:20:06;;;;;;;9.00;5.40;;;6.40;71.80;;;;;;5051238;28;20508;-73
2022/01/10 10:22:31;;;;;;;9.20;5.45;;;6.50;72.00;;;;;;5052263;28;20036;-72
2022/01/10 10:24:57;;;;;;;9.77;5.20;;;6.50;71.90;;;;;;5052331;28;20025;-72
2022/01/10 10:27:24;;;;;;;12.20;5.70;;;6.50;71.90;;;;;;5045697;28;20026;-72
2022/01/10 10:29:50;;;;;;;10.25;5.10;;;6.50;72.00;;;;;;5030885;28;20041;-72
2022/01/10 10:32:15;;;;;;;9.30;4.90;;;6.50;72.00;;;;;;5032322;28;20041;-73
2022/01/10 10:34:42;;;;;;;11.93;5.22;;;6.50;71.90;;;;;;5038315;28;20025;-72
2022/01/10 10:37:14;;;;;;;9.07;5.40;;;6.60;72.00;;;;;;5052131;28;20037;-72
2022/01/10 10:39:44;;;;;;;10.48;5.28;;;6.60;71.90;;;;;;5050054;28;20029;-72
2022/01/10 10:42:15;;;;;;;10.98;4.20;;;6.60;72.10;;;;;;5057984;28;20108;-72
2022/01/10 10:44:43;;;;;;;12.40;4.90;;;6.70;72.10;;;;;;5056011;28;20169;-72
2022/01/10 10:47:10;;;;;;;10.30;4.72;;;6.70;72.00;;;;;;5064210;28;20029;-72
2022/01/10 10:49:40;;;;;;;8.95;4.43;;;6.80;72.00;;;;;;5069993;28;20028;-72
2022/01/10 10:52:09;;;;;;;9.77;4.65;;;6.80;71.80;;;;;;5048892;28;20037;-72
2022/01/10 10:54:36;;;;;;;7.35;4.68;;;6.90;71.70;;;;;;5058003;28;20032;-72
2022/01/10 10:57:04;;;;;;;9.32;4.10;;;6.90;71.60;;;;;;5050554;28;20120;-73
2022/01/10 10:59:34;;;;;;;8.23;4.22;;;7.00;71.30;;;;;;5052195;28;20060;-72
2022/01/10 11:02:00;;;;;;;8.77;4.82;;;7.00;71.20;;;;;;5063397;28;20108;-72
2022/01/10 11:04:26;;;;;;;8.95;4.25;;;7.00;70.90;;;;;;5028288;28;20121;-72
2022/01/10 11:06:52;;;;;;;9.43;4.43;;;7.00;70.80;;;;;;5059571;28;20028;-72
2022/01/10 11:09:18;;;;;;;9.30;4.15;;;7.00;70.80;;;;;;5055242;28;20028;-72
2022/01/10 11:11:44;;;;;;;10.55;3.78;;;7.00;70.90;;;;;;5047602;28;20037;-71
2022/01/10 11:14:14;;;;;;;11.05;4.43;;;7.00;70.80;;;;;;5046488;28;20120;-71
2022/01/10 11:16:42;;;;;;;10.98;4.47;;;7.00;70.90;;;;;;5062731;28;20040;-72
2022/01/10 11:19:22;;;;;;;9.70;4.50;;;7.00;70.90;;;;;;5053278;28;20029;-72
2022/01/10 11:22:02;;;;;;;10.73;4.13;;;7.10;70.70;;;;;;5051607;28;20501;-72
2022/01/10 11:24:49;;;;;;;10.70;4.60;;;7.10;71.00;;;;;;5053011;28;20033;-72
2022/01/10 11:27:36;;;;;;;10.30;5.15;;;7.10;70.40;;;;;;5057452;28;20043;-71
2022/01/10 11:30:24;;;;;;;12.55;4.38;;;7.20;70.30;;;;;;5053048;28;20119;-71
2022/01/10 11:32:51;;;;;;;9.32;4.70;;;7.30;70.40;;;;;;5053540;28;20037;-72
2022/01/10 11:35:18;;;;;;;10.02;5.28;;;7.30;70.50;;;;;;5053558;28;20032;-71
2022/01/10 11:37:45;;;;;;;10.52;5.50;;;7.30;70.30;;;;;;5057345;28;20024;-72
2022/01/10 11:40:13;;;;;;;10.85;5.55;;;7.30;70.20;;;;;;5056071;28;20029;-72
2022/01/10 11:42:51;;;;;;;15.43;6.15;;;7.30;70.00;;;;;;5069192;28;20480;-72
2022/01/10 11:45:17;;;;;;;11.65;5.00;;;7.30;69.80;;;;;;5052927;28;20025;-72
2022/01/10 11:48:01;;;;;;;13.13;6.18;;;7.30;70.10;;;;;;5052816;28;20028;-71
2022/01/10 11:50:29;;;;;;;8.48;4.97;;;7.30;69.70;;;;;;5054206;28;20389;-71
2022/01/10 11:53:04;;;;;;;13.10;5.35;;;7.30;70.10;;;;;;5061728;28;20068;-71
2022/01/10 11:55:41;;;;;;;9.55;4.93;;;7.30;70.00;;;;;;5057931;28;20040;-71
2022/01/10 11:58:24;;;;;;;9.60;5.40;;;7.30;69.70;;;;;;5054208;28;20028;-71
2022/01/10 12:01:02;;;;;;;8.38;4.32;;;7.40;69.50;;;;;;5054192;28;20462;-71
2022/01/10 12:03:28;;;;;;;11.30;4.57;;;7.40;69.70;;;;;;5055500;28;20079;-72
2022/01/10 12:05:53;;;;;;;8.95;4.13;;;7.40;69.20;;;;;;5053559;28;20076;-72
2022/01/10 12:08:19;;;;;;;8.80;4.20;;;7.40;69.20;;;;;;5054020;28;20090;-72
2022/01/10 12:10:47;;;;;;;9.48;4.55;;;7.30;69.10;;;;;;5053974;28;20045;-72
2022/01/10 12:13:14;;;;;;;10.63;4.70;;;7.30;69.10;;;;;;5053193;28;20021;-72
2022/01/10 12:15:39;;;;;;;8.23;4.15;;;7.30;69.10;;;;;;5052290;28;20075;-72
2022/01/10 12:18:06;;;;;;;8.63;4.28;;;7.20;68.80;;;;;;5052977;28;20404;-72
2022/01/10 12:20:32;;;;;;;9.07;4.65;;;7.20;68.60;;;;;;5044444;28;20536;-72
2022/01/10 12:23:02;;;;;;;8.93;4.88;;;7.10;68.80;;;;;;5028483;28;20037;-72
2022/01/10 12:25:28;;;;;;;18.83;7.18;;;7.10;68.70;;;;;;5034347;28;20071;-71
2022/01/10 12:27:56;;;;;;;10.63;5.45;;;7.00;68.90;;;;;;5043597;28;20036;-71
2022/01/10 12:30:25;;;;;;;11.80;6.28;;;7.00;69.60;;;;;;5047455;28;20046;-71
2022/01/10 12:32:51;;;;;;;9.77;5.22;;;7.00;69.10;;;;;;5046866;28;20120;-71
2022/01/10 12:35:19;;;;;;;11.07;5.63;;;7.00;69.10;;;;;;5037409;28;20120;-71
2022/01/10 12:37:45;;;;;;;9.77;5.35;;;7.00;68.80;;;;;;5039394;28;20059;-71
2022/01/10 12:40:13;;;;;;;12.60;5.22;;;6.90;69.00;;;;;;5051030;28;20024;-72
2022/01/10 12:42:39;;;;;;;10.85;5.10;;;6.90;68.90;;;;;;5051258;28;20029;-72
2022/01/10 12:45:05;;;;;;;10.05;5.22;;;6.90;69.10;;;;;;5043852;28;20385;-71
2022/01/10 12:47:31;;;;;;;9.43;5.40;;;6.80;69.10;;;;;;5047610;28;20036;-72
2022/01/10 12:49:57;;;;;;;11.00;5.30;;;6.80;69.30;;;;;;5040215;28;20137;-72
2022/01/10 12:52:22;;;;;;;11.48;5.55;;;6.80;69.50;;;;;;5036145;28;20632;-72
2022/01/10 12:54:49;;;;;;;10.75;5.20;;;6.80;69.40;;;;;;5044156;28;20131;-72
2022/01/10 12:57:17;;;;;;;11.05;5.10;;;6.80;70.00;;;;;;5041377;28;20386;-72
2022/01/10 12:59:43;;;;;;;13.52;5.97;;;6.80;69.20;;;;;;5040671;28;20035;-72
2022/01/10 13:02:09;;;;;;;8.35;5.80;;;6.80;69.10;;;;;;5043769;28;20029;-73